createdAt,value
2023-01-02T00:01:29.714Z,76.59
2023-01-02T00:03:56.939Z,75.28
2023-01-02T00:06:23.422Z,76.08
2023-01-02T00:08:49.792Z,75.92
2023-01-02T00:11:16.152Z,74.98
2023-01-02T00:13:42.490Z,76.61
2023-01-02T00:16:09.024Z,75.79
2023-01-02T00:18:35.539Z,75.07
2023-01-02T00:21:01.859Z,77.95
2023-01-02T00:23:28.208Z,77.41
2023-01-02T00:25:54.655Z,77.90
2023-01-02T00:28:21.007Z,75.65
2023-01-02T00:30:47.364Z,76.69
2023-01-02T00:33:13.721Z,76.22
2023-01-02T00:35:40.190Z,74.45
2023-01-02T00:38:06.619Z,74.82
2023-01-02T00:40:33.033Z,74.65
2023-01-02T00:42:59.414Z,73.03
2023-01-02T00:45:25.764Z,75.02
2023-01-02T00:50:18.533Z,74.67
2023-01-02T00:52:44.931Z,74.49
2023-01-02T00:55:11.330Z,75.28
2023-01-02T00:57:39.236Z,76.12
2023-01-02T01:00:05.605Z,74.69
2023-01-02T01:02:32.233Z,74.79
2023-01-02T01:04:58.663Z,74.69
2023-01-02T01:07:25.046Z,74.74
2023-01-02T01:09:51.431Z,74.72
2023-01-02T01:12:17.813Z,74.27
2023-01-02T01:14:44.177Z,75.09
2023-01-02T01:17:10.557Z,75.69
2023-01-02T01:19:36.943Z,76.12
2023-01-02T01:22:03.257Z,75.76
2023-01-02T01:24:29.697Z,75.37
2023-01-02T01:26:56.057Z,73.49
2023-01-02T01:29:22.489Z,73.32
2023-01-02T01:31:48.880Z,75.13
2023-01-02T01:34:15.328Z,76.00
2023-01-02T01:36:41.714Z,75.47
2023-01-02T01:39:08.095Z,75.13
2023-01-02T01:41:34.422Z,75.16
2023-01-02T01:44:01.442Z,75.39
2023-01-02T01:46:27.802Z,74.95
2023-01-02T01:48:54.187Z,75.32
2023-01-02T01:51:22.041Z,73.84
2023-01-02T01:53:48.412Z,74.62
2023-01-02T01:56:14.732Z,75.25
2023-01-02T01:58:43.098Z,75.33
2023-01-02T02:01:10.110Z,75.72
2023-01-02T02:03:36.558Z,75.27
2023-01-02T02:06:02.962Z,74.58
2023-01-02T02:08:29.321Z,74.14
2023-01-02T02:10:55.688Z,73.79
2023-01-02T02:13:22.130Z,71.59
2023-01-02T02:15:52.971Z,72.56
2023-01-02T02:18:19.372Z,73.65
2023-01-02T02:20:45.705Z,72.60
2023-01-02T02:23:12.066Z,70.81
2023-01-02T02:25:38.432Z,69.48
2023-01-02T02:28:04.863Z,71.45
2023-01-02T02:30:31.239Z,70.72
2023-01-02T02:32:57.764Z,70.94
2023-01-02T02:35:24.152Z,70.66
2023-01-02T02:37:50.503Z,71.11
2023-01-02T02:40:16.868Z,71.85
2023-01-02T02:42:43.249Z,70.74
2023-01-02T02:45:10.216Z,71.32
2023-01-02T02:47:36.572Z,69.69
2023-01-02T02:50:03.386Z,69.24
2023-01-02T02:52:29.767Z,69.29
2023-01-02T02:54:56.088Z,70.04
2023-01-02T02:57:22.484Z,71.24
2023-01-02T02:59:48.830Z,70.80
2023-01-02T03:02:15.331Z,70.85
2023-01-02T03:04:41.758Z,72.75
2023-01-02T03:07:08.229Z,71.39
2023-01-02T03:09:34.563Z,71.89
2023-01-02T03:12:00.941Z,72.58
2023-01-02T03:14:27.318Z,71.34
2023-01-02T03:16:53.650Z,72.44
2023-01-02T03:19:20.017Z,72.61
2023-01-02T03:21:46.386Z,73.94
2023-01-02T03:24:12.790Z,73.46
2023-01-02T03:26:39.148Z,72.67
2023-01-02T03:29:05.571Z,71.12
2023-01-02T03:31:32.058Z,69.79
2023-01-02T03:33:58.418Z,69.55
2023-01-02T03:36:24.816Z,69.41
2023-01-02T03:38:51.162Z,70.00
2023-01-02T03:41:17.582Z,70.33
2023-01-02T03:43:43.953Z,70.97
2023-01-02T03:46:10.331Z,71.13
2023-01-02T03:48:36.812Z,69.81
2023-01-02T03:51:03.192Z,70.08
2023-01-02T03:53:29.579Z,71.13
2023-01-02T03:55:55.930Z,70.76
2023-01-02T03:58:22.343Z,71.18
2023-01-02T04:00:48.690Z,71.55
2023-01-02T04:03:15.111Z,72.41
2023-01-02T04:05:41.535Z,74.70
2023-01-02T04:08:07.939Z,73.43
2023-01-02T04:10:34.350Z,74.14
2023-01-02T04:13:00.827Z,74.47
2023-01-02T04:15:27.232Z,74.67
2023-01-02T04:17:53.625Z,74.21
2023-01-02T04:20:19.963Z,74.59
2023-01-02T04:22:46.349Z,75.46
2023-01-02T04:25:13.672Z,75.82
2023-01-02T04:27:40.102Z,75.13
2023-01-02T04:30:06.432Z,75.58
2023-01-02T04:32:32.927Z,75.39
2023-01-02T04:34:59.276Z,75.03
2023-01-02T04:37:25.638Z,75.53
2023-01-02T04:39:51.971Z,77.04
2023-01-02T04:42:19.118Z,75.43
2023-01-02T04:44:45.489Z,76.40
2023-01-02T04:47:15.511Z,77.74
2023-01-02T04:49:45.559Z,78.47
2023-01-02T04:52:11.919Z,77.01
2023-01-02T04:54:38.259Z,76.77
2023-01-02T04:57:04.620Z,75.10
2023-01-02T04:59:30.988Z,76.33
2023-01-02T05:01:57.426Z,77.40
2023-01-02T05:04:24.031Z,77.90
2023-01-02T05:06:50.376Z,76.61
2023-01-02T05:09:17.242Z,77.52
2023-01-02T05:11:43.570Z,78.43
2023-01-02T05:14:09.987Z,77.14
2023-01-02T05:16:36.339Z,77.88
2023-01-02T05:19:02.704Z,80.30
2023-01-02T05:21:48.004Z,82.23
2023-01-02T05:24:14.369Z,85.66
2023-01-02T05:26:40.707Z,85.83
2023-01-02T05:29:07.080Z,85.82
2023-01-02T05:31:33.493Z,86.39
2023-01-02T05:33:59.915Z,84.63
2023-01-02T05:36:26.334Z,85.35
2023-01-02T05:38:52.820Z,91.77
2023-01-02T05:41:19.182Z,94.18
2023-01-02T05:43:45.568Z,91.84
2023-01-02T05:46:12.028Z,88.26
2023-01-02T05:48:38.526Z,86.47
2023-01-02T05:51:04.916Z,86.11
2023-01-02T05:53:31.293Z,88.20
2023-01-02T05:55:57.636Z,87.64
2023-01-02T05:58:24.020Z,91.21
2023-01-02T06:00:50.352Z,88.77
2023-01-02T06:03:16.809Z,87.25
2023-01-02T06:05:43.207Z,85.81
2023-01-02T06:08:09.684Z,85.47
2023-01-02T06:10:36.046Z,86.64
2023-01-02T06:13:02.517Z,86.23
2023-01-02T06:15:28.841Z,86.44
2023-01-02T06:17:55.209Z,86.68
2023-01-02T06:20:21.561Z,86.30
2023-01-02T06:22:47.956Z,86.68
2023-01-02T06:25:14.365Z,87.17
2023-01-02T06:27:40.724Z,89.44
2023-01-02T06:30:07.059Z,90.32
2023-01-02T06:32:33.485Z,92.82
2023-01-02T06:34:59.842Z,90.54
2023-01-02T06:37:26.243Z,89.07
2023-01-02T06:39:52.621Z,87.57
2023-01-02T06:42:18.964Z,86.57
2023-01-02T06:44:45.315Z,85.84
2023-01-02T06:47:11.729Z,86.46
2023-01-02T06:49:38.215Z,87.32
2023-01-02T06:52:04.572Z,88.11
2023-01-02T06:54:30.961Z,88.97
2023-01-02T06:56:57.326Z,88.38
2023-01-02T06:59:23.701Z,89.57
2023-01-02T07:01:50.138Z,89.58
2023-01-02T07:04:16.737Z,91.28
2023-01-02T07:06:43.082Z,94.68
2023-01-02T07:09:09.499Z,97.18
2023-01-02T07:11:35.857Z,97.99
2023-01-02T07:14:02.246Z,98.37
2023-01-02T07:16:28.645Z,98.63
2023-01-02T07:18:57.323Z,96.97
2023-01-02T07:21:23.662Z,92.59
2023-01-02T07:23:50.053Z,89.31
2023-01-02T07:26:16.417Z,87.39
2023-01-02T07:28:42.832Z,87.50
2023-01-02T07:31:09.237Z,86.42
2023-01-02T07:33:35.579Z,85.79
2023-01-02T07:36:02.059Z,87.08
2023-01-02T07:38:28.544Z,86.79
2023-01-02T07:40:55.256Z,86.37
2023-01-02T07:43:21.719Z,87.20
2023-01-02T07:45:50.401Z,86.22
2023-01-02T07:48:17.265Z,87.14
2023-01-02T07:50:43.659Z,88.07
2023-01-02T07:53:10.035Z,87.91
2023-01-02T07:55:39.295Z,84.68
2023-01-02T07:58:06.981Z,85.55
2023-01-02T08:00:33.363Z,87.65
2023-01-02T08:02:59.757Z,86.91
2023-01-02T08:05:26.120Z,86.12
2023-01-02T08:07:52.518Z,86.80
2023-01-02T08:10:18.887Z,86.62
2023-01-02T08:12:45.289Z,86.06
2023-01-02T08:15:11.626Z,83.17
2023-01-02T08:17:38.079Z,84.45
2023-01-02T08:20:08.125Z,84.33
2023-01-02T08:22:34.948Z,84.11
2023-01-02T08:25:01.385Z,84.37
2023-01-02T08:27:27.801Z,84.85
2023-01-02T08:29:54.132Z,88.69
2023-01-02T08:32:20.528Z,89.38
2023-01-02T08:34:46.998Z,89.18
2023-01-02T08:37:13.617Z,91.23
2023-01-02T08:39:40.055Z,90.91
2023-01-02T08:42:06.412Z,93.02
2023-01-02T08:44:33.937Z,92.52
2023-01-02T08:47:01.350Z,92.63
2023-01-02T08:49:27.735Z,93.01
2023-01-02T08:51:54.086Z,92.85
2023-01-02T08:54:20.488Z,90.24
2023-01-02T08:56:46.835Z,89.21
2023-01-02T08:59:13.230Z,88.26
2023-01-02T09:01:39.639Z,86.47
2023-01-02T09:04:12.069Z,87.60
2023-01-02T09:06:39.423Z,86.31
2023-01-02T09:09:11.532Z,84.29
2023-01-02T09:11:38.669Z,83.78
2023-01-02T09:14:07.338Z,81.93
2023-01-02T09:16:33.683Z,81.65
2023-01-02T09:19:01.090Z,80.63
2023-01-02T09:21:27.661Z,80.15
2023-01-02T09:23:54.032Z,78.69
2023-01-02T09:26:20.400Z,78.07
2023-01-02T09:28:46.788Z,78.97
2023-01-02T09:31:13.225Z,77.88
2023-01-02T09:33:39.704Z,78.24
2023-01-02T09:36:06.070Z,75.91
2023-01-02T09:38:32.458Z,75.06
2023-01-02T09:40:58.783Z,75.65
2023-01-02T09:43:25.150Z,75.67
2023-01-02T09:45:51.523Z,75.25
2023-01-02T09:48:17.931Z,73.95
2023-01-02T09:50:44.259Z,73.39
2023-01-02T09:53:12.447Z,74.05
2023-01-02T09:55:38.859Z,74.57
2023-01-02T09:58:05.247Z,74.10
2023-01-02T10:00:35.453Z,74.64
2023-01-02T10:03:07.597Z,74.02
2023-01-02T10:05:34.513Z,75.15
2023-01-02T10:08:00.905Z,76.06
2023-01-02T10:10:27.267Z,75.15
2023-01-02T10:12:53.794Z,75.62
2023-01-02T10:15:20.191Z,75.43
2023-01-02T10:17:46.578Z,74.92
2023-01-02T10:20:12.928Z,75.01
2023-01-02T10:22:39.353Z,74.95
2023-01-02T10:25:05.929Z,74.96
2023-01-02T10:27:32.279Z,74.87
2023-01-02T10:29:58.637Z,73.28
2023-01-02T10:32:28.135Z,72.77
2023-01-02T10:34:54.772Z,73.68
2023-01-02T10:37:21.180Z,73.42
2023-01-02T10:39:47.563Z,72.88
2023-01-02T10:42:13.955Z,72.39
2023-01-02T10:44:40.304Z,72.65
2023-01-02T10:47:06.647Z,71.43
2023-01-02T10:49:34.660Z,73.58
2023-01-02T10:52:00.999Z,71.30
2023-01-02T10:54:27.367Z,72.54
2023-01-02T10:56:55.033Z,70.19
2023-01-02T10:59:21.429Z,69.99
2023-01-02T11:01:47.873Z,70.46
2023-01-02T11:04:14.471Z,68.69
2023-01-02T11:06:40.853Z,67.86
2023-01-02T11:09:08.622Z,68.84
2023-01-02T11:11:35.007Z,67.96
2023-01-02T11:14:01.467Z,68.08
2023-01-02T11:16:27.882Z,67.41
2023-01-02T11:18:54.348Z,67.01
2023-01-02T11:21:20.699Z,67.77
2023-01-02T11:23:47.590Z,65.36
2023-01-02T11:26:13.974Z,65.28
2023-01-02T11:28:41.785Z,65.29
2023-01-02T11:31:08.196Z,63.96
2023-01-02T11:33:34.672Z,64.07
2023-01-02T11:36:01.022Z,64.50
2023-01-02T11:38:29.980Z,63.93
2023-01-02T11:40:56.976Z,64.63
2023-01-02T11:43:41.966Z,64.47
2023-01-02T11:46:10.561Z,65.21
2023-01-02T11:48:36.980Z,62.50
2023-01-02T11:51:03.358Z,64.28
2023-01-02T11:53:29.781Z,62.72
2023-01-02T11:55:56.267Z,61.92
2023-01-02T11:58:22.623Z,63.62
2023-01-02T12:00:48.983Z,62.82
2023-01-02T12:03:18.376Z,63.26
2023-01-02T12:05:45.271Z,61.79
2023-01-02T12:08:11.704Z,61.19
2023-01-02T12:10:38.079Z,63.02
2023-01-02T12:13:04.552Z,64.93
2023-01-02T12:15:32.040Z,65.51
2023-01-02T12:17:58.459Z,64.30
2023-01-02T12:20:24.815Z,63.64
2023-01-02T12:22:51.194Z,64.14
2023-01-02T12:25:17.538Z,64.98
2023-01-02T12:27:43.986Z,63.42
2023-01-02T12:30:10.507Z,64.90
2023-01-02T12:32:38.371Z,63.96
2023-01-02T12:35:04.874Z,64.89
2023-01-02T12:37:31.292Z,64.15
2023-01-02T12:39:57.617Z,63.23
2023-01-02T12:42:23.953Z,65.56
2023-01-02T12:44:53.110Z,66.64
2023-01-02T12:47:19.489Z,65.89
2023-01-02T12:49:45.849Z,66.41
2023-01-02T12:52:12.210Z,68.83
2023-01-02T12:54:39.294Z,67.57
2023-01-02T12:57:05.908Z,68.29
2023-01-02T12:59:32.289Z,69.69
2023-01-02T13:01:58.752Z,71.19
2023-01-02T13:04:25.221Z,72.87
2023-01-02T13:06:51.549Z,71.69
2023-01-02T13:09:22.287Z,72.67
2023-01-02T13:11:49.564Z,71.50
2023-01-02T13:14:16.033Z,71.95
2023-01-02T13:16:44.499Z,71.89
2023-01-02T13:19:11.379Z,71.81
2023-01-02T13:21:37.800Z,71.79
2023-01-02T13:24:04.235Z,71.93
2023-01-02T13:26:30.581Z,72.69
2023-01-02T13:28:57.072Z,72.43
2023-01-02T13:34:09.851Z,72.73
2023-01-02T13:36:36.194Z,74.16
2023-01-02T13:39:02.582Z,74.97
2023-01-02T13:41:28.961Z,75.80
2023-01-02T13:43:55.420Z,76.74
2023-01-02T13:46:53.401Z,75.28
2023-01-02T13:49:08.199Z,75.52
2023-01-02T13:51:34.529Z,77.35
2023-01-02T13:54:01.648Z,76.54
2023-01-02T13:56:28.021Z,75.83
2023-01-02T13:58:54.465Z,76.26
2023-01-02T14:01:20.985Z,76.14
2023-01-02T14:03:47.477Z,76.87
2023-01-02T14:06:13.901Z,77.27
2023-01-02T14:08:40.323Z,75.48
2023-01-02T14:11:10.167Z,76.92
2023-01-02T14:13:36.653Z,79.21
2023-01-02T14:16:03.063Z,79.31
2023-01-02T14:18:30.780Z,79.63
2023-01-02T14:20:57.341Z,81.02
2023-01-02T14:23:23.836Z,81.03
2023-01-02T14:25:50.184Z,81.55
2023-01-02T14:28:16.681Z,81.76
2023-01-02T14:30:43.219Z,82.55
2023-01-02T14:33:10.584Z,82.08
2023-01-02T14:35:36.965Z,82.40
2023-01-02T14:38:03.528Z,83.01
2023-01-02T14:40:29.916Z,82.80
2023-01-02T14:43:16.255Z,84.04
2023-01-02T14:45:42.631Z,84.83
2023-01-02T14:48:09.099Z,85.81
2023-01-02T14:50:35.572Z,85.61
2023-01-02T14:53:02.015Z,85.16
2023-01-02T14:55:28.592Z,85.90
2023-01-02T14:57:55.258Z,85.78
2023-01-02T15:00:22.764Z,86.43
2023-01-02T15:02:49.310Z,87.71
2023-01-02T15:05:16.117Z,88.81
2023-01-02T15:07:42.765Z,88.41
2023-01-02T15:10:09.175Z,88.06
2023-01-02T15:12:54.503Z,87.25
2023-01-02T15:15:53.569Z,87.61
2023-01-02T15:18:33.445Z,87.65
2023-01-02T15:21:07.331Z,88.18
2023-01-02T15:23:34.043Z,87.97
2023-01-02T15:26:31.099Z,88.79
2023-01-02T15:28:54.525Z,90.51
2023-01-02T15:31:21.403Z,89.47
2023-01-02T15:33:55.099Z,89.38
2023-01-02T15:36:56.606Z,90.18
2023-01-02T15:39:32.707Z,90.36
2023-01-02T15:41:59.318Z,89.56
2023-01-02T15:44:52.524Z,90.02
2023-01-02T15:47:23.961Z,90.82
2023-01-02T15:49:54.155Z,91.64
2023-01-02T15:52:22.729Z,92.21
2023-01-02T15:54:49.913Z,95.63
2023-01-02T15:57:16.965Z,95.88
2023-01-02T15:59:43.718Z,95.17
2023-01-02T16:02:19.149Z,94.38
2023-01-02T16:04:46.251Z,96.29
2023-01-02T16:07:23.272Z,96.84
2023-01-02T16:09:54.392Z,95.72
2023-01-02T16:12:21.362Z,94.89
2023-01-02T16:14:50.723Z,93.82
2023-01-02T16:17:32.491Z,94.88
2023-01-02T16:20:12.460Z,93.57
2023-01-02T16:23:14.382Z,93.36
2023-01-02T16:25:45.097Z,94.85
2023-01-02T16:28:35.159Z,94.81
2023-01-02T16:31:11.824Z,96.72
2023-01-02T16:33:39.111Z,96.32
2023-01-02T16:36:19.049Z,97.84
2023-01-02T16:38:59.567Z,97.57
2023-01-02T16:41:35.133Z,98.81
2023-01-02T16:44:12.334Z,98.13
2023-01-02T16:46:39.200Z,99.04
2023-01-02T16:49:05.824Z,97.86
2023-01-02T16:51:32.535Z,98.11
2023-01-02T16:53:59.245Z,98.50
2023-01-02T16:56:25.863Z,98.14
2023-01-02T16:58:53.250Z,99.20
2023-01-02T17:01:20.677Z,99.04
2023-01-02T17:03:47.651Z,100.00
2023-01-02T17:06:15.806Z,100.00
2023-01-02T17:08:42.590Z,100.00
2023-01-02T17:11:18.355Z,100.00
2023-01-02T17:13:45.919Z,100.00
2023-01-02T17:16:12.619Z,100.00
2023-01-02T17:18:39.278Z,100.00
2023-01-02T17:21:06.069Z,100.00
2023-01-02T17:23:32.727Z,100.00
2023-01-02T17:25:59.371Z,100.00
2023-01-02T17:28:27.568Z,100.00
2023-01-02T17:30:54.343Z,100.00
2023-01-02T17:33:21.054Z,100.00
2023-01-02T17:35:47.776Z,100.00
2023-01-02T17:38:14.597Z,100.00
2023-01-02T17:40:45.030Z,100.00
2023-01-02T17:43:14.648Z,100.00
2023-01-02T17:45:48.888Z,100.00
2023-01-02T17:48:23.853Z,100.00
2023-01-02T17:59:03.978Z,100.00
2023-01-02T18:01:30.857Z,100.00
2023-01-02T18:03:57.572Z,100.00
2023-01-02T18:06:25.076Z,100.00
2023-01-02T18:08:54.652Z,100.00
2023-01-02T18:11:21.414Z,100.00
2023-01-02T18:13:50.336Z,100.00
2023-01-02T18:16:18.941Z,100.00
2023-01-02T18:18:45.762Z,100.00
2023-01-02T18:21:13.837Z,100.00
2023-01-02T18:23:40.898Z,100.00
2023-01-02T18:26:14.770Z,100.00
2023-01-02T18:28:45.038Z,100.00
2023-01-02T18:31:17.949Z,100.00
2023-01-02T18:33:44.661Z,100.00
2023-01-02T18:36:18.168Z,100.00
2023-01-02T18:38:44.877Z,100.00
2023-01-02T18:41:32.001Z,100.00
2023-01-02T18:44:01.958Z,100.00
2023-01-02T18:47:03.370Z,100.00
2023-01-02T18:49:26.756Z,100.00
2023-01-02T18:52:24.341Z,100.00
2023-01-02T18:54:58.666Z,100.00
2023-01-02T18:57:30.271Z,100.00
2023-01-02T18:59:59.551Z,100.00
2023-01-02T19:02:54.414Z,100.00
2023-01-02T19:05:29.988Z,100.00
2023-01-02T19:08:00.569Z,100.00
2023-01-02T19:10:37.337Z,100.00
2023-01-02T19:13:08.082Z,100.00
2023-01-02T19:15:46.460Z,100.00
2023-01-02T19:18:16.031Z,100.00
2023-01-02T19:20:43.229Z,100.00
2023-01-02T19:23:31.487Z,100.00
2023-01-02T19:26:14.356Z,100.00
2023-01-02T19:28:48.444Z,100.00
2023-01-02T19:31:15.982Z,100.00
2023-01-02T19:33:51.531Z,100.00
2023-01-02T19:36:41.449Z,100.00
2023-01-02T19:39:24.396Z,100.00
2023-01-02T19:42:09.829Z,100.00
2023-01-02T19:44:36.639Z,100.00
2023-01-02T19:47:04.012Z,100.00
2023-01-02T19:49:31.806Z,100.00
2023-01-02T19:51:59.375Z,100.00
2023-01-02T19:54:26.066Z,100.00
2023-01-02T19:56:55.473Z,100.00
2023-01-02T19:59:22.200Z,100.00
2023-01-02T20:01:56.334Z,100.00
2023-01-02T20:04:23.214Z,100.00
2023-01-02T20:06:50.155Z,100.00
2023-01-02T20:09:19.531Z,100.00
2023-01-02T20:12:08.073Z,100.00
2023-01-02T20:14:34.914Z,100.00
2023-01-02T20:17:01.897Z,100.00
2023-01-02T20:19:28.546Z,100.00
2023-01-02T20:21:55.264Z,100.00
2023-01-02T20:24:21.984Z,100.00
2023-01-02T20:26:48.855Z,100.00
2023-01-02T20:29:16.053Z,100.00
2023-01-02T20:31:42.853Z,100.00
2023-01-02T20:34:09.610Z,100.00
2023-01-02T20:36:36.264Z,100.00
2023-01-02T20:39:03.037Z,100.00
2023-01-02T20:41:29.638Z,100.00
2023-01-02T20:43:56.241Z,100.00
2023-01-02T20:46:22.913Z,100.00
2023-01-02T20:48:50.030Z,100.00
2023-01-02T20:51:17.598Z,100.00
2023-01-02T20:53:44.435Z,100.00
2023-01-02T20:56:11.093Z,100.00
2023-01-02T20:58:46.675Z,100.00
2023-01-02T21:01:14.101Z,100.00
2023-01-02T21:03:41.170Z,100.00
2023-01-02T21:06:08.129Z,100.00
2023-01-02T21:08:36.866Z,100.00
2023-01-02T21:11:04.381Z,100.00
2023-01-02T21:13:32.115Z,100.00
2023-01-02T21:15:59.217Z,100.00
2023-01-02T21:18:33.417Z,100.00
2023-01-02T21:21:05.936Z,100.00
2023-01-02T21:23:36.976Z,100.00
2023-01-02T21:26:09.166Z,100.00
2023-01-02T21:28:36.361Z,100.00
2023-01-02T21:31:03.145Z,100.00
2023-01-02T21:33:29.896Z,100.00
2023-01-02T21:35:58.335Z,100.00
2023-01-02T21:38:25.398Z,100.00
2023-01-02T21:40:52.781Z,100.00
2023-01-02T21:43:23.864Z,100.00
2023-01-02T21:45:50.586Z,100.00
2023-01-02T21:48:17.237Z,100.00
2023-01-02T21:50:43.925Z,100.00
2023-01-02T21:53:10.612Z,100.00
2023-01-02T21:55:39.811Z,100.00
2023-01-02T21:58:14.600Z,100.00
2023-01-02T22:00:41.928Z,100.00
2023-01-02T22:03:09.060Z,100.00
2023-01-02T22:05:35.878Z,100.00
2023-01-02T22:08:02.608Z,100.00
2023-01-02T22:10:29.436Z,100.00
2023-01-02T22:12:56.088Z,100.00
2023-01-02T22:15:23.880Z,100.00
2023-01-02T22:17:50.480Z,100.00
2023-01-02T22:20:17.193Z,100.00
2023-01-02T22:22:43.994Z,100.00
2023-01-02T22:25:10.781Z,100.00
2023-01-02T22:27:37.414Z,100.00
2023-01-02T22:30:27.329Z,100.00
2023-01-02T22:32:53.240Z,100.00
2023-01-02T22:35:19.861Z,100.00
2023-01-02T22:37:46.693Z,100.00
2023-01-02T22:40:13.436Z,100.00
2023-01-02T22:43:00.955Z,100.00
2023-01-02T22:45:30.412Z,100.00
2023-01-02T22:47:58.024Z,100.00
2023-01-02T22:50:27.271Z,100.00
2023-01-02T22:52:54.072Z,100.00
2023-01-02T22:55:21.510Z,100.00
2023-01-02T22:57:51.298Z,100.00
2023-01-02T23:00:21.756Z,100.00
2023-01-02T23:02:48.797Z,100.00
2023-01-02T23:05:17.121Z,100.00
2023-01-02T23:07:44.036Z,100.00
2023-01-02T23:10:10.761Z,100.00
2023-01-02T23:12:37.453Z,100.00
2023-01-02T23:15:04.973Z,100.00
2023-01-02T23:17:50.359Z,100.00
2023-01-02T23:20:17.069Z,100.00
2023-01-02T23:22:43.737Z,100.00
2023-01-02T23:25:10.507Z,100.00
2023-01-02T23:27:37.097Z,100.00
2023-01-02T23:30:05.232Z,100.00
2023-01-02T23:32:31.845Z,100.00
2023-01-02T23:34:58.588Z,100.00
2023-01-02T23:37:26.250Z,100.00
2023-01-02T23:39:52.991Z,100.00
2023-01-02T23:42:19.581Z,100.00
2023-01-02T23:44:46.206Z,100.00
2023-01-02T23:47:18.631Z,100.00
2023-01-02T23:49:45.863Z,100.00
2023-01-02T23:52:12.482Z,100.00
2023-01-02T23:54:39.302Z,100.00
2023-01-02T23:57:05.950Z,100.00
2023-01-02T23:59:32.606Z,100.00
